Time;durP1;ratioP1;P1;durP2;ratioP2;P2;SDS_P1;SDS_P2;PMS_P1;PMS_P2;Temp;Humidity;BMP_temperature;BMP_pressure;BME280_temperature;BME280_humidity;BME280_pressure;Samples;Min_cycle;Max_cycle;Signal;HPM_P1;HPM_P2
2021/03/17 00:00:11;;;;;;;8.38;1.77;;;;;;;7.64;65.31;100495.00;4976837;28;20047;-87
2021/03/17 00:02:38;;;;;;;6.22;1.73;;;;;;;7.65;65.98;100492.34;4978507;28;20058;-87
2021/03/17 00:05:06;;;;;;;7.97;1.55;;;;;;;7.65;65.79;100491.47;4990775;28;20104;-87
2021/03/17 00:07:33;;;;;;;7.78;1.95;;;;;;;7.67;65.84;100492.28;4996108;28;20489;-87
2021/03/17 00:09:59;;;;;;;5.47;1.73;;;;;;;7.67;65.89;100490.50;4997074;28;20050;-87
2021/03/17 00:12:25;;;;;;;6.28;1.63;;;;;;;7.68;66.15;100494.88;4996364;28;20054;-87
2021/03/17 00:14:51;;;;;;;7.93;1.65;;;;;;;7.69;65.96;100493.94;4983261;28;20050;-87
2021/03/17 00:17:18;;;;;;;7.82;2.10;;;;;;;7.70;66.30;100494.78;4977963;28;20394;-87
2021/03/17 00:19:45;;;;;;;5.03;1.40;;;;;;;7.71;66.42;100498.28;4976770;28;20047;-87
2021/03/17 00:22:11;;;;;;;8.05;1.67;;;;;;;7.71;66.16;100493.91;4976651;28;20050;-87
2021/03/17 00:24:37;;;;;;;9.88;1.77;;;;;;;7.72;66.47;100492.13;4986093;28;20050;-87
2021/03/17 00:27:04;;;;;;;8.88;2.17;;;;;;;7.72;66.34;100498.22;4996045;28;20057;-87
2021/03/17 00:29:30;;;;;;;5.80;1.90;;;;;;;7.73;66.75;100496.47;4995994;28;20042;-87
2021/03/17 00:31:56;;;;;;;5.90;1.98;;;;;;;7.72;66.35;100494.75;4995501;28;20050;-87
2021/03/17 00:34:23;;;;;;;5.82;1.85;;;;;;;7.73;66.55;100493.84;4988391;28;20058;-87
2021/03/17 00:36:49;;;;;;;7.47;1.98;;;;;;;7.74;66.60;100500.81;4976367;28;20055;-87
2021/03/17 00:39:15;;;;;;;6.45;1.85;;;;;;;7.73;67.00;100491.25;4977247;28;20544;-87
2021/03/17 00:41:41;;;;;;;8.85;2.10;;;;;;;7.73;66.88;100492.06;4976282;28;20050;-86
2021/03/17 00:44:21;;;;;;;8.23;2.65;;;;;;;7.75;66.84;100505.13;4983469;28;20050;-87
2021/03/17 00:46:47;;;;;;;11.27;2.30;;;;;;;7.76;67.17;100504.22;4995708;28;20054;-87
2021/03/17 00:49:13;;;;;;;9.05;2.30;;;;;;;7.76;67.08;100497.22;4996748;28;20055;-87
2021/03/17 00:51:39;;;;;;;7.15;2.13;;;;;;;7.76;67.09;100494.59;4995228;28;20501;-87
2021/03/17 00:54:06;;;;;;;6.22;2.85;;;;;;;7.78;66.83;100491.94;4989451;28;20047;-87
2021/03/17 00:56:32;;;;;;;5.35;2.28;;;;;;;7.78;67.02;100503.25;4976977;28;20054;-87
2021/03/17 00:58:58;;;;;;;5.60;2.10;;;;;;;7.76;66.85;100506.84;4977223;28;20091;-87
2021/03/17 01:01:24;;;;;;;6.68;2.35;;;;;;;7.75;67.02;100500.75;4977054;28;20457;-87
2021/03/17 01:03:50;;;;;;;9.10;2.80;;;;;;;7.73;67.02;100502.56;4978151;28;20125;-87
2021/03/17 01:06:17;;;;;;;6.22;2.22;;;;;;;7.72;66.99;100503.47;4995362;28;20061;-87
2021/03/17 01:08:44;;;;;;;9.55;2.35;;;;;;;7.71;67.23;100503.53;4994684;28;20132;-87
2021/03/17 01:11:10;;;;;;;4.95;1.95;;;;;;;7.71;67.31;100506.13;4996286;28;20126;-87
2021/03/17 01:13:36;;;;;;;10.13;2.40;;;;;;;7.69;67.53;100501.81;4994595;28;20386;-87
2021/03/17 01:16:02;;;;;;;6.55;2.58;;;;;;;7.70;67.36;100500.03;4976766;28;20054;-87
2021/03/17 01:18:29;;;;;;;6.40;2.47;;;;;;;7.70;67.50;100500.03;4975446;28;20083;-87
2021/03/17 01:20:55;;;;;;;6.15;2.60;;;;;;;7.68;67.47;100505.34;4975315;28;20524;-87
2021/03/17 01:23:21;;;;;;;7.50;2.42;;;;;;;7.68;67.34;100502.72;4975656;28;20055;-86
2021/03/17 01:25:47;;;;;;;5.47;2.63;;;;;;;7.66;67.01;100503.66;4993853;28;20057;-87
2021/03/17 01:28:14;;;;;;;11.10;2.88;;;;;;;7.65;67.47;100504.56;4996177;28;20054;-86
2021/03/17 01:30:43;;;;;;;8.10;2.70;;;;;;;7.64;67.37;100505.47;4994597;28;20053;-86
2021/03/17 01:33:11;;;;;;;4.90;2.25;;;;;;;7.62;67.43;100502.91;4994866;28;20047;-86
2021/03/17 01:35:38;;;;;;;5.78;2.65;;;;;;;7.62;67.19;100502.06;4992528;28;20053;-87
2021/03/17 01:38:06;;;;;;;10.77;2.40;;;;;;;7.61;67.40;100500.34;4995880;28;20052;-86
2021/03/17 01:40:34;;;;;;;10.48;2.78;;;;;;;7.59;67.22;100503.00;4995836;28;20061;-87
2021/03/17 01:43:01;;;;;;;8.98;2.88;;;;;;;7.59;67.50;100507.41;4995867;28;20401;-87
2021/03/17 01:45:27;;;;;;;4.68;2.42;;;;;;;7.56;67.40;100498.72;4978279;28;20536;-87
2021/03/17 01:47:53;;;;;;;6.38;2.70;;;;;;;7.54;67.40;100503.16;4976365;28;20061;-87
2021/03/17 01:50:32;;;;;;;6.63;2.70;;;;;;;7.53;67.32;100503.22;4976101;28;20050;-87
2021/03/17 01:53:05;;;;;;;10.05;2.15;;;;;;;7.53;67.81;100508.44;4975157;28;20050;-87
2021/03/17 01:55:32;;;;;;;5.80;2.47;;;;;;;7.53;67.66;100505.84;4991302;28;20520;-87
2021/03/17 01:57:58;;;;;;;5.95;2.47;;;;;;;7.51;67.59;100505.03;4994453;28;20054;-87
2021/03/17 02:00:24;;;;;;;8.02;2.10;;;;;;;7.50;67.54;100503.31;4995437;28;20061;-87
2021/03/17 02:02:53;;;;;;;7.28;2.33;;;;;;;7.48;67.37;100511.22;4994315;28;20056;-87
2021/03/17 02:05:31;;;;;;;7.97;2.53;;;;;;;7.48;67.82;100510.38;4979618;28;20054;-87
2021/03/17 02:08:00;;;;;;;6.57;2.28;;;;;;;7.48;67.54;100510.38;4975999;28;20053;-87
2021/03/17 02:10:27;;;;;;;7.85;2.50;;;;;;;7.48;68.07;100508.59;4975695;28;20050;-87
2021/03/17 02:13:11;;;;;;;6.38;2.47;;;;;;;7.45;67.47;100506.09;4975849;28;20066;-87
2021/03/17 02:16:00;;;;;;;4.10;2.13;;;;;;;7.46;67.53;100513.03;4990048;28;20061;-87
2021/03/17 02:18:40;;;;;;;6.22;2.10;;;;;;;7.47;67.14;100513.91;4994064;28;20051;-87
2021/03/17 02:21:45;;;;;;;7.15;1.73;;;;;;;7.42;66.36;100522.75;4993017;28;20108;-87
2021/03/17 02:24:36;;;;;;;5.63;1.33;;;;;;;7.36;66.11;100525.56;4990808;28;20053;-87
2021/03/17 02:27:10;;;;;;;3.60;1.23;;;;;;;7.30;66.26;100529.22;4975589;28;20070;-87
2021/03/17 02:30:14;;;;;;;2.13;1.00;;;;;;;7.19;66.00;100530.47;4974079;28;20057;-87
2021/03/17 02:32:51;;;;;;;3.70;1.48;;;;;;;7.12;66.52;100535.88;4974138;28;20054;-87
2021/03/17 02:35:21;;;;;;;3.97;1.17;;;;;;;7.08;67.53;100536.88;4986158;28;20481;-87
2021/03/17 02:37:49;;;;;;;3.13;1.27;;;;;;;7.04;67.29;100527.41;4993606;28;20072;-87
2021/03/17 02:40:31;;;;;;;4.70;1.40;;;;;;;7.01;67.43;100527.50;4993199;28;20050;-87
2021/03/17 02:43:04;;;;;;;2.25;1.10;;;;;;;6.99;67.17;100524.91;4994725;28;20062;-87
2021/03/17 02:45:51;;;;;;;6.18;1.10;;;;;;;6.99;67.32;100529.31;4994172;28;20046;-87
2021/03/17 02:48:29;;;;;;;3.90;1.10;;;;;;;6.95;67.51;100528.53;4988355;28;20105;-87
2021/03/17 02:51:01;;;;;;;7.57;1.00;;;;;;;6.93;66.92;100524.25;4973893;28;20046;-87
2021/03/17 02:53:28;;;;;;;7.32;1.33;;;;;;;6.93;67.06;100516.38;4975089;28;20051;-87
2021/03/17 02:56:06;;;;;;;1.80;0.98;;;;;;;6.89;66.72;100518.25;4991286;28;20050;-87
2021/03/17 02:58:35;;;;;;;4.57;1.17;;;;;;;6.89;67.10;100516.47;4993379;28;20046;-87
2021/03/17 03:01:02;;;;;;;3.63;1.05;;;;;;;6.89;67.45;100513.00;4994389;28;20050;-87
2021/03/17 03:03:32;;;;;;;4.53;1.00;;;;;;;6.88;67.39;100517.38;4990133;28;20046;-87
2021/03/17 03:06:01;;;;;;;5.47;1.30;;;;;;;6.88;67.67;100517.38;4993773;28;20046;-87
2021/03/17 03:08:28;;;;;;;4.03;0.90;;;;;;;6.90;67.46;100519.97;4994362;28;20057;-88
2021/03/17 03:10:56;;;;;;;3.92;0.98;;;;;;;6.88;67.46;100513.94;4993057;28;20420;-88
2021/03/17 03:13:27;;;;;;;4.50;1.17;;;;;;;6.86;66.97;100518.31;4992363;28;20062;-88
2021/03/17 03:16:10;;;;;;;3.03;1.15;;;;;;;6.86;67.25;100511.34;4973588;28;20054;-88
2021/03/17 03:18:37;;;;;;;5.25;3.35;;;;;;;6.85;67.21;100501.78;4974788;28;20114;-88
2021/03/17 03:21:06;;;;;;;8.95;5.38;;;;;;;6.83;66.80;100505.31;4973283;28;20051;-88
2021/03/17 03:23:33;;;;;;;8.70;6.40;;;;;;;6.82;66.86;100504.50;4974356;28;20046;-88
2021/03/17 03:26:01;;;;;;;13.80;7.03;;;;;;;6.78;66.96;100498.47;4992645;28;20057;-88
2021/03/17 03:28:28;;;;;;;12.57;7.20;;;;;;;6.76;66.77;100507.25;4994113;28;20138;-88
2021/03/17 03:30:55;;;;;;;12.45;7.63;;;;;;;6.72;66.70;100501.28;5033531;23;20046;-89
2021/03/17 03:33:22;;;;;;;11.13;7.10;;;;;;;6.70;66.89;100502.22;4980060;28;20053;-89
2021/03/17 03:35:50;;;;;;;11.48;5.78;;;;;;;6.65;66.42;100502.34;4997565;28;20105;-86
2021/03/17 03:38:18;;;;;;;6.63;3.60;;;;;;;6.63;66.70;100514.63;4997879;28;20085;-86
2021/03/17 03:40:46;;;;;;;5.32;2.90;;;;;;;6.59;67.06;100510.38;4980248;28;20047;-87
2021/03/17 03:43:13;;;;;;;5.80;2.75;;;;;;;6.56;66.66;100513.94;4998042;28;20054;-87
2021/03/17 03:45:40;;;;;;;6.13;2.35;;;;;;;6.51;66.59;100505.38;4980598;28;20104;-87
2021/03/17 03:48:07;;;;;;;2.97;1.50;;;;;;;6.47;66.64;100511.59;4980842;28;20070;-89
2021/03/17 03:50:44;;;;;;;3.85;1.30;;;;;;;6.41;66.01;100506.50;4980676;28;20046;-89
2021/03/17 03:53:10;;;;;;;2.58;1.08;;;;;;;6.38;66.93;100512.69;4978806;28;20050;-89
2021/03/17 03:55:51;;;;;;;6.47;1.48;;;;;;;6.30;65.99;100507.66;4997409;28;20054;-89
2021/03/17 03:58:32;;;;;;;5.00;1.00;;;;;;;6.25;66.22;100514.78;4980657;28;20058;-87
2021/03/17 04:01:07;;;;;;;6.60;1.23;;;;;;;6.22;66.24;100510.50;4979056;28;20057;-86
2021/03/17 04:03:37;;;;;;;4.45;1.00;;;;;;;6.18;66.80;100510.59;4996787;28;20121;-89
2021/03/17 04:06:05;;;;;;;4.95;1.20;;;;;;;6.16;67.05;100515.03;4980028;28;20070;-89
2021/03/17 04:08:35;;;;;;;6.72;1.15;;;;;;;6.10;67.16;100519.50;4980176;28;20425;-89
2021/03/17 04:11:01;;;;;;;3.28;0.90;;;;;;;6.09;67.44;100523.00;4980062;28;20493;-89
2021/03/17 04:13:30;;;;;;;4.28;0.90;;;;;;;6.08;67.47;100521.31;4980251;28;20392;-90
2021/03/17 04:15:58;;;;;;;8.80;1.10;;;;;;;6.07;67.72;100523.97;4979978;28;20054;-88
2021/03/17 04:18:29;;;;;;;5.57;1.20;;;;;;;6.04;67.54;100524.91;4979715;28;20054;-89
2021/03/17 04:21:00;;;;;;;7.38;1.30;;;;;;;6.04;67.54;100522.28;4980009;28;20489;-89
2021/03/17 04:23:29;;;;;;;5.75;1.17;;;;;;;6.03;67.60;100528.41;4980363;28;20077;-88
2021/03/17 04:25:56;;;;;;;5.95;1.38;;;;;;;6.02;67.83;100518.81;4979919;28;20054;-89
2021/03/17 04:28:26;;;;;;;3.00;0.95;;;;;;;6.03;67.61;100522.28;4979477;28;20048;-89
2021/03/17 04:30:56;;;;;;;5.03;1.00;;;;;;;6.04;67.73;100521.41;4979659;28;20053;-86
2021/03/17 04:33:23;;;;;;;8.63;1.50;;;;;;;6.03;67.98;100528.41;4980018;28;20050;-87
2021/03/17 04:35:55;;;;;;;2.83;1.00;;;;;;;6.03;67.84;100532.75;4979815;28;20124;-87
2021/03/17 04:38:25;;;;;;;7.70;1.17;;;;;;;6.02;67.50;100534.47;4996595;28;20464;-87
2021/03/17 04:40:52;;;;;;;6.50;1.10;;;;;;;6.02;67.34;100537.09;4996643;28;20090;-87
2021/03/17 04:43:19;;;;;;;4.80;1.40;;;;;;;5.98;67.48;100535.50;4993439;28;20508;-87
2021/03/17 04:45:46;;;;;;;6.13;1.20;;;;;;;5.96;67.59;100540.75;4979514;28;20050;-88
2021/03/17 04:48:12;;;;;;;5.28;1.10;;;;;;;5.93;67.63;100550.41;4979141;28;20047;-89
2021/03/17 04:50:40;;;;;;;4.22;1.20;;;;;;;5.88;67.69;100545.31;4979604;28;20053;-89
2021/03/17 04:53:11;;;;;;;3.15;1.23;;;;;;;5.85;67.38;100545.38;4979712;28;20058;-89
2021/03/17 04:55:37;;;;;;;7.10;1.40;;;;;;;5.84;67.92;100552.34;4996628;28;20050;-89
2021/03/17 04:58:08;;;;;;;3.83;1.20;;;;;;;5.83;68.02;100555.03;4978978;28;20058;-89
2021/03/17 05:00:36;;;;;;;5.90;1.70;;;;;;;5.82;68.30;100548.06;4979442;28;20054;-88
2021/03/17 05:03:05;;;;;;;5.30;1.33;;;;;;;5.81;67.85;100551.56;4996762;28;20054;-89
2021/03/17 05:05:33;;;;;;;4.43;1.38;;;;;;;5.81;68.06;100548.94;4978871;28;20072;-87
2021/03/17 05:08:06;;;;;;;2.00;1.30;;;;;;;5.77;67.85;100557.75;4995868;28;20046;-87
2021/03/17 05:10:33;;;;;;;;;;;;;;;5.77;67.20;100548.19;4996839;28;20057;-87
2021/03/17 05:13:00;;;;;;;4.32;1.00;;;;;;;5.82;68.77;100546.31;4979163;28;19922;-89
2021/03/17 05:15:27;;;;;;;4.68;1.10;;;;;;;5.81;68.30;100544.59;4978796;28;20509;-89
2021/03/17 05:17:59;;;;;;;6.45;1.55;;;;;;;5.82;68.54;100541.09;4995771;28;20074;-89
2021/03/17 05:20:26;;;;;;;5.53;1.40;;;;;;;5.83;68.50;100548.03;4978847;28;20554;-89
2021/03/17 05:22:53;;;;;;;5.22;1.40;;;;;;;5.84;68.80;100544.50;4978872;28;20050;-89
2021/03/17 05:25:21;;;;;;;5.75;1.63;;;;;;;5.85;68.84;100546.25;4996124;28;20057;-89
2021/03/17 05:27:53;;;;;;;7.63;1.40;;;;;;;5.86;68.24;100552.31;4995660;28;20055;-89
2021/03/17 05:30:21;;;;;;;3.78;1.38;;;;;;;5.89;68.70;100546.16;4959119;28;20062;-89
2021/03/17 05:32:49;;;;;;;1.80;1.05;;;;;;;5.89;68.64;100547.00;4959718;28;20063;-87
2021/03/17 05:35:16;;;;;;;10.05;1.75;;;;;;;5.89;68.71;100547.00;4959362;28;20082;-87
2021/03/17 05:37:45;;;;;;;3.40;1.40;;;;;;;5.90;68.80;100547.88;4960954;28;20131;-87
2021/03/17 05:40:13;;;;;;;4.60;1.70;;;;;;;5.91;68.98;100544.38;4995689;28;20054;-87
2021/03/17 05:42:40;;;;;;;6.07;1.63;;;;;;;5.93;69.27;100555.63;4978293;28;20412;-87
2021/03/17 05:45:17;;;;;;;6.38;1.77;;;;;;;5.92;68.43;100553.91;4978455;28;20057;-87
2021/03/17 05:48:04;;;;;;;5.18;1.25;;;;;;;5.96;68.71;100556.44;4980761;28;20054;-87
2021/03/17 05:50:31;;;;;;;3.40;1.33;;;;;;;5.97;68.93;100559.88;4995311;28;20042;-87
2021/03/17 05:52:58;;;;;;;4.00;1.30;;;;;;;5.98;68.87;100561.63;4978458;28;20085;-87
2021/03/17 05:55:25;;;;;;;6.72;1.60;;;;;;;5.98;69.25;100562.47;4994955;28;20058;-87
2021/03/17 05:57:52;;;;;;;4.78;2.10;;;;;;;5.99;69.07;100561.56;4995727;28;20433;-87
2021/03/17 06:00:20;;;;;;;5.63;1.42;;;;;;;6.00;69.17;100568.53;4958870;28;20405;-87
2021/03/17 06:02:48;;;;;;;6.03;1.50;;;;;;;6.03;69.23;100570.22;4959102;28;20059;-87
2021/03/17 06:05:18;;;;;;;3.63;1.60;;;;;;;6.04;68.90;100571.94;4958964;28;20055;-88
2021/03/17 06:07:50;;;;;;;4.53;1.50;;;;;;;6.03;68.60;100561.50;4959611;28;20525;-88
2021/03/17 06:10:17;;;;;;;5.45;1.80;;;;;;;6.05;69.18;100568.44;4977962;28;20051;-89
2021/03/17 06:12:49;;;;;;;7.05;1.70;;;;;;;6.06;68.92;100564.91;4978224;28;20058;-90
2021/03/17 06:15:21;;;;;;;4.85;1.48;;;;;;;6.09;68.97;100567.44;4977762;28;20097;-90
2021/03/17 06:18:01;;;;;;;4.03;1.83;;;;;;;6.09;68.40;100572.69;4977890;28;20493;-90
2021/03/17 06:20:28;;;;;;;5.90;1.90;;;;;;;6.13;69.30;100574.31;4977815;28;20050;-90
2021/03/17 06:22:54;;;;;;;5.32;2.00;;;;;;;6.14;69.52;100583.03;4978116;28;20054;-90
2021/03/17 06:25:20;;;;;;;3.90;1.70;;;;;;;6.16;69.44;100576.00;4994815;28;20057;-90
2021/03/17 06:27:47;;;;;;;5.53;1.80;;;;;;;6.18;69.59;100578.56;4995201;28;20054;-90
2021/03/17 06:30:13;;;;;;;5.38;1.63;;;;;;;6.20;69.47;100576.78;4977760;28;20061;-91
2021/03/17 06:32:40;;;;;;;2.85;1.80;;;;;;;6.22;69.30;100573.25;4994668;28;20054;-90
2021/03/17 06:35:22;;;;;;;5.55;1.92;;;;;;;6.22;68.74;100569.75;4977083;28;20086;-90
2021/03/17 06:37:54;;;;;;;5.90;2.03;;;;;;;6.27;69.58;100567.88;4978415;28;20050;-90
2021/03/17 06:40:24;;;;;;;4.63;2.00;;;;;;;6.29;69.13;100568.72;4994075;28;20057;-90
2021/03/17 06:42:52;;;;;;;3.80;1.75;;;;;;;6.30;69.44;100575.66;4994817;28;20046;-89
2021/03/17 06:45:48;;;;;;;9.77;2.40;;;;;;;6.29;68.75;100571.31;4994560;28;20108;-89
2021/03/17 06:48:25;;;;;;;8.55;1.95;;;;;;;6.33;69.00;100572.09;4969248;28;20430;-89
2021/03/17 06:51:11;;;;;;;5.32;2.50;;;;;;;6.35;68.75;100567.66;4977205;28;20130;-89
2021/03/17 06:53:42;;;;;;;6.68;2.08;;;;;;;6.41;69.28;100566.66;4976969;28;20100;-90
2021/03/17 06:56:42;;;;;;;5.30;1.92;;;;;;;6.38;68.34;100576.31;4994558;28;20046;-89
2021/03/17 06:59:09;;;;;;;6.25;1.42;;;;;;;6.38;68.80;100568.47;4992389;28;20054;-89
2021/03/17 07:01:35;;;;;;;6.05;1.23;;;;;;;6.36;68.82;100575.47;4994223;28;20050;-89
2021/03/17 07:04:07;;;;;;;3.55;1.15;;;;;;;6.33;68.22;100574.72;4993525;28;20046;-87
2021/03/17 07:06:35;;;;;;;5.22;1.20;;;;;;;6.33;68.62;100570.34;4993939;28;20050;-86
2021/03/17 07:09:25;;;;;;;7.00;1.60;;;;;;;6.29;67.92;100570.47;4994412;28;20057;-86
2021/03/17 07:12:09;;;;;;;5.28;1.20;;;;;;;6.30;68.31;100570.41;4976623;28;20489;-87
2021/03/17 07:14:40;;;;;;;9.73;1.80;;;;;;;6.35;68.97;100578.13;4975930;28;20496;-87
2021/03/17 07:17:27;;;;;;;5.38;1.90;;;;;;;6.37;68.56;100579.84;4977026;28;20064;-91
2021/03/17 07:19:53;;;;;;;7.05;1.77;;;;;;;6.47;69.40;100584.81;4976970;28;20137;-88
2021/03/17 07:22:20;;;;;;;6.30;2.03;;;;;;;6.51;69.44;100581.22;4976994;28;20057;-88
2021/03/17 07:24:52;;;;;;;6.50;2.30;;;;;;;6.56;69.35;100581.06;4976855;28;20054;-88
2021/03/17 07:27:21;;;;;;;10.18;2.67;;;;;;;6.60;69.53;100580.97;4976825;28;20053;-88
2021/03/17 07:29:59;;;;;;;6.38;2.33;;;;;;;6.62;68.70;100586.16;4976807;28;20080;-88
2021/03/17 07:32:54;;;;;;;5.15;2.10;;;;;;;6.69;68.73;100589.47;4979246;28;20050;-88
2021/03/17 07:35:26;;;;;;;6.00;2.17;;;;;;;6.73;69.11;100589.31;4976815;28;20046;-88
2021/03/17 07:38:13;;;;;;;3.78;1.80;;;;;;;6.78;68.70;100594.44;4994154;28;20100;-89
2021/03/17 07:40:43;;;;;;;6.30;2.85;;;;;;;6.85;69.26;100596.00;4976859;28;20489;-91
2021/03/17 07:43:11;;;;;;;4.60;2.03;;;;;;;6.88;69.38;100601.13;4976549;28;20129;-90
2021/03/17 07:45:37;;;;;;;5.38;2.65;;;;;;;6.92;69.22;100596.69;4976536;28;20475;-91
2021/03/17 07:48:09;;;;;;;5.25;2.17;;;;;;;6.95;69.25;100601.81;4977055;28;20051;-90
2021/03/17 07:50:38;;;;;;;5.47;1.90;;;;;;;6.99;69.42;100606.06;4976706;28;20413;-91
2021/03/17 07:53:15;;;;;;;3.70;1.80;;;;;;;7.00;68.41;100609.53;4976372;28;20058;-91
2021/03/17 07:55:45;;;;;;;5.60;1.70;;;;;;;7.06;68.60;100611.97;4976547;28;20058;-90
2021/03/17 07:58:13;;;;;;;7.70;2.10;;;;;;;7.10;68.82;100608.38;4976826;28;20050;-91
2021/03/17 08:00:42;;;;;;;4.10;1.90;;;;;;;7.15;68.92;100608.25;4976695;28;20069;-91
2021/03/17 08:03:12;;;;;;;6.35;2.10;;;;;;;7.19;68.54;100609.00;4993438;28;20046;-91
2021/03/17 08:05:39;;;;;;;4.50;1.75;;;;;;;7.22;68.66;100606.31;4975888;28;20435;-90
2021/03/17 08:08:07;;;;;;;5.28;1.70;;;;;;;7.22;68.63;100607.16;4976656;28;20046;-86
2021/03/17 08:10:36;;;;;;;5.13;2.00;;;;;;;7.25;68.52;100606.22;4976107;28;20481;-86
2021/03/17 08:13:04;;;;;;;4.72;1.58;;;;;;;7.28;68.63;100606.13;4976226;28;20046;-86
2021/03/17 08:15:31;;;;;;;5.68;1.90;;;;;;;7.32;68.99;100605.13;4976347;28;20050;-86
2021/03/17 08:17:57;;;;;;;6.65;1.80;;;;;;;7.37;69.02;100608.47;4977680;28;20058;-87
2021/03/17 08:20:29;;;;;;;5.38;1.92;;;;;;;7.40;69.13;100608.38;4980015;28;20406;-87
2021/03/17 08:22:57;;;;;;;7.15;2.03;;;;;;;7.45;69.10;100605.63;4996713;28;20057;-85
2021/03/17 08:25:45;;;;;;;9.02;1.88;;;;;;;7.48;68.03;100613.38;4996994;28;20050;-85
2021/03/17 08:28:16;;;;;;;7.13;1.98;;;;;;;7.55;68.14;100609.66;4997343;28;20133;-85
2021/03/17 08:30:42;;;;;;;10.27;1.98;;;;;;;7.62;68.97;100612.13;4996779;28;20050;-85
2021/03/17 08:33:09;;;;;;;5.75;1.90;;;;;;;7.63;68.81;100604.19;4979161;28;20054;-85
2021/03/17 08:36:00;;;;;;;10.27;2.15;;;;;;;7.64;66.87;100616.41;4977340;28;20078;-86
2021/03/17 08:38:49;;;;;;;12.45;2.17;;;;;;;7.69;67.25;100621.50;4960707;28;20054;-85
2021/03/17 08:41:17;;;;;;;15.68;2.05;;;;;;;7.76;68.59;100619.53;4980501;28;20148;-85
2021/03/17 08:43:46;;;;;;;9.40;1.75;;;;;;;7.79;68.24;100611.59;4979613;28;20146;-86
2021/03/17 08:46:17;;;;;;;9.77;2.33;;;;;;;7.80;68.13;100613.28;4979629;28;20440;-85
2021/03/17 08:49:04;;;;;;;5.07;1.98;;;;;;;7.82;67.97;100614.94;4982097;28;20085;-86
2021/03/17 08:51:46;;;;;;;6.72;2.20;;;;;;;7.83;67.13;100623.69;4979276;28;20066;-86
2021/03/17 08:54:33;;;;;;;6.53;1.88;;;;;;;7.89;67.00;100620.84;4979372;28;20047;-86
2021/03/17 08:57:04;;;;;;;7.57;2.30;;;;;;;7.98;68.74;100621.47;4979251;28;20493;-86
2021/03/17 08:59:52;;;;;;;8.48;2.95;;;;;;;7.99;66.80;100610.94;4979409;28;20046;-86
2021/03/17 09:02:24;;;;;;;7.25;3.60;;;;;;;8.08;66.93;100615.03;4978975;28;20053;-87
2021/03/17 09:05:04;;;;;;;5.50;3.17;;;;;;;8.12;68.01;100621.91;4979175;28;20053;-88
2021/03/17 09:07:33;;;;;;;7.53;2.67;;;;;;;8.16;67.57;100634.00;4979558;28;20057;-88
2021/03/17 09:10:13;;;;;;;5.38;2.47;;;;;;;8.17;67.75;100627.84;4980812;28;20452;-88
2021/03/17 09:12:43;;;;;;;8.30;1.95;;;;;;;8.18;67.33;100629.56;4979098;28;20081;-88
2021/03/17 09:15:20;;;;;;;3.17;1.70;;;;;;;8.18;66.32;100636.56;4978989;28;20500;-88
2021/03/17 09:17:54;;;;;;;9.18;2.13;;;;;;;8.20;65.95;100635.63;4996415;28;20493;-88
2021/03/17 09:20:25;;;;;;;8.43;1.70;;;;;;;8.22;66.06;100627.69;4979117;28;20049;-88
2021/03/17 09:22:57;;;;;;;4.45;1.70;;;;;;;8.20;66.19;100635.63;4978496;28;20058;-88
2021/03/17 09:25:35;;;;;;;6.63;1.63;;;;;;;8.20;65.63;100630.38;4978839;28;20056;-88
2021/03/17 09:28:05;;;;;;;6.32;1.50;;;;;;;8.20;66.60;100630.38;4996247;28;20053;-87
2021/03/17 09:33:03;;;;;;;4.45;1.80;;;;;;;8.22;67.30;100630.31;5036181;23;20058;-86
2021/03/17 09:35:30;;;;;;;4.45;1.40;;;;;;;8.23;67.75;100618.94;4995650;28;20069;-86
2021/03/17 09:38:05;;;;;;;5.07;1.42;;;;;;;8.25;66.79;100618.84;4995928;28;20053;-86
2021/03/17 09:40:35;;;;;;;2.50;1.40;;;;;;;8.32;67.76;100615.13;4994703;28;20054;-86
2021/03/17 09:43:01;;;;;;;5.40;1.77;;;;;;;8.39;68.04;100611.38;4959005;28;20059;-86
2021/03/17 09:45:28;;;;;;;4.75;1.70;;;;;;;8.45;68.03;100605.91;4955447;29;20054;-86
2021/03/17 09:47:57;;;;;;;5.97;1.52;;;;;;;8.52;67.75;100608.34;4956748;28;20425;-86
2021/03/17 09:50:26;;;;;;;6.25;1.63;;;;;;;8.59;67.75;100609.84;4955619;29;20094;-86
2021/03/17 09:52:52;;;;;;;7.10;1.90;;;;;;;8.69;67.74;100610.41;4970857;28;20059;-86
2021/03/17 09:55:34;;;;;;;5.88;1.60;;;;;;;8.74;66.17;100618.97;4974869;28;20051;-86
2021/03/17 09:58:04;;;;;;;7.30;1.80;;;;;;;8.87;67.88;100614.16;4974854;28;20058;-86
2021/03/17 10:00:33;;;;;;;4.75;1.40;;;;;;;8.97;67.92;100610.25;4974891;28;20046;-86
2021/03/17 10:03:01;;;;;;;6.22;1.70;;;;;;;9.06;67.54;100603.84;4960626;28;20055;-86
2021/03/17 10:05:29;;;;;;;3.65;1.30;;;;;;;9.18;67.61;100601.63;4966815;28;20148;-86
2021/03/17 10:07:55;;;;;;;6.10;1.48;;;;;;;9.29;67.66;100614.38;4974596;28;20502;-88
2021/03/17 10:10:22;;;;;;;5.65;1.60;;;;;;;9.37;67.48;100607.06;4975636;28;20050;-86
2021/03/17 10:12:49;;;;;;;6.43;1.90;;;;;;;9.46;66.73;100609.31;4961708;28;20051;-86
2021/03/17 10:15:21;;;;;;;4.93;1.48;;;;;;;9.54;66.21;100611.69;4972869;28;20391;-86
2021/03/17 10:17:48;;;;;;;5.97;1.77;;;;;;;9.64;66.95;100612.16;4975505;28;20058;-86
2021/03/17 10:20:22;;;;;;;9.82;1.98;;;;;;;9.72;66.69;100617.97;4975875;28;20122;-86
2021/03/17 10:22:51;;;;;;;3.47;1.40;;;;;;;9.82;66.77;100609.72;4961254;28;20051;-86
2021/03/17 10:25:19;;;;;;;7.93;1.45;;;;;;;9.90;66.20;100605.88;4954804;28;20422;-87
2021/03/17 10:27:49;;;;;;;3.63;1.42;;;;;;;9.98;66.41;100602.91;4955216;29;20055;-86
2021/03/17 10:30:30;;;;;;;8.05;1.50;;;;;;;10.02;64.19;100596.59;4954756;28;20054;-86
2021/03/17 10:33:01;;;;;;;6.75;1.77;;;;;;;10.12;65.93;100597.09;4957052;28;20071;-87
2021/03/17 10:35:32;;;;;;;4.35;1.40;;;;;;;10.15;64.64;100604.00;4954556;28;20055;-86
2021/03/17 10:38:00;;;;;;;7.47;1.45;;;;;;;10.20;65.20;100601.19;4954704;29;20142;-87
2021/03/17 10:40:28;;;;;;;9.88;1.52;;;;;;;10.23;65.71;100604.53;4954879;28;20137;-87
2021/03/17 10:43:05;;;;;;;6.68;1.50;;;;;;;10.26;65.49;100614.06;4963689;28;20050;-86
2021/03/17 10:45:41;;;;;;;10.95;2.78;;;;;;;10.32;64.94;100612.97;4975092;28;20058;-87
2021/03/17 10:48:12;;;;;;;6.53;1.77;;;;;;;10.34;64.52;100614.59;4974061;28;20469;-87
2021/03/17 10:50:39;;;;;;;6.43;1.48;;;;;;;10.41;65.19;100610.81;4974022;28;20053;-86
2021/03/17 10:53:21;;;;;;;6.82;1.13;;;;;;;10.42;62.63;100606.38;4973749;28;20501;-86
2021/03/17 10:55:49;;;;;;;8.05;1.55;;;;;;;10.49;64.58;100607.88;4974191;28;20051;-86
2021/03/17 10:58:17;;;;;;;4.53;1.50;;;;;;;10.51;63.99;100605.19;4973871;28;20497;-87
2021/03/17 11:00:48;;;;;;;6.15;1.45;;;;;;;10.52;64.19;100598.97;4972008;28;20055;-87
2021/03/17 11:03:22;;;;;;;10.10;2.33;;;;;;;10.49;61.96;100612.25;4971226;28;20046;-87
2021/03/17 11:05:49;;;;;;;5.18;1.38;;;;;;;10.47;63.44;100608.84;4954321;28;20066;-86
2021/03/17 11:08:16;;;;;;;11.27;1.77;;;;;;;10.40;63.35;100609.06;4955589;28;20054;-86
2021/03/17 11:10:48;;;;;;;8.38;1.77;;;;;;;10.33;61.93;100612.03;4954186;28;20050;-87
2021/03/17 11:13:17;;;;;;;14.43;1.70;;;;;;;10.27;63.12;100608.75;4954395;28;20055;-86
2021/03/17 11:15:44;;;;;;;3.40;1.05;;;;;;;10.23;63.15;100611.56;4959595;28;20512;-86
2021/03/17 11:18:33;;;;;;;6.90;1.48;;;;;;;10.15;61.08;100611.88;4972864;28;20505;-87
2021/03/17 11:21:07;;;;;;;5.25;1.40;;;;;;;10.09;62.16;100610.38;4974567;28;20047;-87
2021/03/17 11:23:36;;;;;;;7.57;1.60;;;;;;;10.00;62.42;100614.25;4973570;28;20054;-87
2021/03/17 11:26:04;;;;;;;5.60;1.55;;;;;;;9.88;63.02;100622.63;4973381;28;20054;-87
2021/03/17 11:28:38;;;;;;;5.55;1.30;;;;;;;9.74;62.72;100621.41;4974581;28;20501;-87
2021/03/17 11:31:08;;;;;;;9.05;1.50;;;;;;;9.65;63.90;100624.41;4958020;28;20047;-87
2021/03/17 11:33:35;;;;;;;3.05;1.10;;;;;;;9.60;64.64;100621.06;4955373;28;20051;-87
2021/03/17 11:36:04;;;;;;;7.25;1.30;;;;;;;9.56;64.66;100624.72;4953828;29;20074;-87
2021/03/17 11:38:30;;;;;;;5.90;1.38;;;;;;;9.54;64.83;100623.94;4953910;28;20059;-86
2021/03/17 11:40:58;;;;;;;5.95;1.58;;;;;;;9.50;65.10;100624.06;4955299;28;20044;-87
2021/03/17 11:43:30;;;;;;;6.95;1.55;;;;;;;9.49;64.93;100629.38;4955087;28;20520;-86
2021/03/17 11:45:59;;;;;;;7.03;1.40;;;;;;;9.57;66.54;100626.47;4955358;28;20055;-86
2021/03/17 11:48:27;;;;;;;7.20;1.52;;;;;;;9.64;66.33;100633.19;4955220;28;20134;-86
2021/03/17 11:50:55;;;;;;;4.45;1.10;;;;;;;9.69;65.54;100639.13;4954991;28;20055;-87